Time;durP1;ratioP1;P1;durP2;ratioP2;P2;SDS_P1;SDS_P2;PMS_P1;PMS_P2;Temp;Humidity;BMP_temperature;BMP_pressure;BME280_temperature;BME280_humidity;BME280_pressure;Samples;Min_cycle;Max_cycle;Signal;HPM_P1;HPM_P2
2022/09/18 00:00:47;;;;;;;2.63;1.85;;;;;;;18.84;100.00;93254.06;5032734;28;20653;-63
2022/09/18 00:03:14;;;;;;;5.80;2.28;;;;;;;18.74;100.00;93255.56;5032469;28;20220;-63
2022/09/18 00:05:40;;;;;;;7.38;1.55;;;;;;;18.49;100.00;93236.78;5032456;28;20201;-63
2022/09/18 00:08:07;;;;;;;4.50;1.65;;;;;;;18.30;100.00;93265.00;5032529;28;20178;-64
2022/09/18 00:10:38;;;;;;;3.95;2.03;;;;;;;18.14;100.00;93262.19;5014308;28;20781;-63
2022/09/18 00:13:05;;;;;;;3.55;2.10;;;;;;;18.12;100.00;93244.38;5032151;28;20212;-64
2022/09/18 00:15:30;;;;;;;3.13;1.40;;;;;;;17.83;100.00;93247.56;5032237;28;20275;-61
2022/09/18 00:17:56;;;;;;;3.60;1.80;;;;;;;17.74;100.00;93241.09;5032119;28;20754;-64
2022/09/18 00:20:21;;;;;;;3.35;1.90;;;;;;;17.33;100.00;93249.19;5039604;22;20238;-66
2022/09/18 00:22:46;;;;;;;2.85;1.75;;;;;;;17.15;100.00;93281.69;5041403;22;20597;-63
2022/09/18 00:25:12;;;;;;;3.42;1.67;;;;;;;16.81;100.00;93292.25;5031909;28;20720;-63
2022/09/18 00:27:37;;;;;;;3.15;1.55;;;;;;;16.30;100.00;93292.06;5032344;28;20194;-63
2022/09/18 00:30:03;;;;;;;2.15;1.13;;;;;;;15.78;100.00;93305.59;5032063;28;20293;-62
2022/09/18 00:32:29;;;;;;;4.22;1.15;;;;;;;15.47;100.00;93333.50;5014166;28;20657;-63
2022/09/18 00:34:54;;;;;;;1.00;0.90;;;;;;;15.02;100.00;93347.66;5031947;28;20210;-62
2022/09/18 00:37:20;;;;;;;1.48;1.08;;;;;;;14.83;100.00;93376.44;5014105;28;20229;-66
2022/09/18 00:39:46;;;;;;;4.63;0.90;;;;;;;14.49;100.00;93419.88;5031489;28;20209;-63
2022/09/18 00:42:12;;;;;;;2.50;0.88;;;;;;;14.21;100.00;93407.78;5032252;28;20596;-64
2022/09/18 00:44:41;;;;;;;3.85;0.63;;;;;;;14.03;100.00;93412.53;5032215;28;20744;-63
2022/09/18 00:47:09;;;;;;;1.07;0.60;;;;;;;14.02;100.00;93412.69;5032045;28;20202;-64
2022/09/18 00:49:44;;;;;;;0.60;0.60;;;;;;;13.92;100.00;93432.63;5031937;28;20704;-64
2022/09/18 00:52:12;;;;;;;0.83;0.70;;;;;;;13.93;100.00;93447.00;5031968;28;20671;-63
2022/09/18 00:54:49;;;;;;;0.97;0.50;;;;;;;13.73;100.00;93461.31;5031788;28;20280;-65
2022/09/18 00:57:20;;;;;;;0.77;0.50;;;;;;;13.84;100.00;93486.38;5032003;28;20316;-64
2022/09/18 00:59:49;;;;;;;3.20;0.57;;;;;;;13.68;100.00;93477.16;5031838;28;20206;-63
2022/09/18 01:02:15;;;;;;;3.80;0.50;;;;;;;13.66;100.00;93491.06;5013970;28;20738;-63
2022/09/18 01:04:41;;;;;;;3.73;0.50;;;;;;;13.54;100.00;93500.13;5031596;28;20222;-64
2022/09/18 01:07:28;;;;;;;0.33;0.33;;;;;;;13.37;100.00;93522.50;5031953;28;20198;-65
2022/09/18 01:10:19;;;;;;;0.30;0.30;;;;;;;13.28;100.00;93537.09;5014001;28;20232;-66
2022/09/18 01:12:54;;;;;;;0.30;0.30;;;;;;;13.08;100.00;93556.41;5031725;28;20194;-64
2022/09/18 01:15:33;;;;;;;7.73;0.30;;;;;;;12.61;100.00;93571.03;5031548;28;20206;-64
2022/09/18 01:17:59;;;;;;;0.23;0.23;;;;;;;12.47;100.00;93569.22;5031326;28;20221;-63
2022/09/18 01:20:36;;;;;;;0.40;0.40;;;;;;;12.21;100.00;93538.94;5031329;28;20202;-63
2022/09/18 01:23:46;;;;;;;0.30;0.20;;;;;;;12.31;100.00;93500.50;5032041;28;20201;-63
2022/09/18 01:26:28;;;;;;;0.37;0.30;;;;;;;12.26;100.00;93534.13;5031467;28;20201;-63
2022/09/18 01:29:04;;;;;;;0.20;0.20;;;;;;;11.96;100.00;93537.44;5031353;28;20779;-62
2022/09/18 01:31:39;;;;;;;0.30;0.20;;;;;;;11.72;100.00;93545.16;5013535;28;20196;-62
2022/09/18 01:34:17;;;;;;;0.20;0.20;;;;;;;11.57;100.00;93562.81;5013327;28;20547;-63
2022/09/18 01:36:50;;;;;;;2.57;0.20;;;;;;;11.50;100.00;93571.28;5031328;28;20243;-63
2022/09/18 01:39:31;;;;;;;0.10;0.10;;;;;;;11.42;100.00;93569.56;5040038;22;20249;-65
2022/09/18 01:41:57;;;;;;;2.87;0.63;;;;;;;11.31;100.00;93592.75;5031286;28;20738;-65
2022/09/18 01:44:28;;;;;;;2.27;0.20;;;;;;;11.21;100.00;93579.41;5013474;28;20218;-62
2022/09/18 01:46:57;;;;;;;0.27;0.20;;;;;;;11.08;100.00;93596.91;5031010;28;20194;-63
2022/09/18 01:49:27;;;;;;;0.10;0.10;;;;;;;10.98;100.00;93596.28;5031121;28;20217;-64
2022/09/18 01:51:58;;;;;;;1.87;0.20;;;;;;;10.90;100.00;93601.38;5030192;28;20189;-63
2022/09/18 01:54:30;;;;;;;0.10;0.10;;;;;;;10.83;100.00;93618.19;5031041;28;20271;-65
2022/09/18 01:57:01;;;;;;;0.10;0.10;;;;;;;10.77;100.00;93606.09;5030894;28;20256;-62
2022/09/18 01:59:39;;;;;;;0.50;0.23;;;;;;;10.83;100.00;93641.88;5030954;28;20244;-63
2022/09/18 02:02:10;;;;;;;0.50;0.30;;;;;;;10.62;100.00;93631.34;5030833;28;20276;-61
2022/09/18 02:04:41;;;;;;;0.20;0.20;;;;;;;10.43;100.00;93631.59;5030821;28;20293;-65
2022/09/18 02:07:16;;;;;;;0.33;0.10;;;;;;;10.32;100.00;93639.50;5030899;28;20178;-63
2022/09/18 02:09:42;;;;;;;0.17;0.17;;;;;;;10.18;100.00;93652.75;5038236;22;20258;-62
2022/09/18 02:12:13;;;;;;;0.57;0.30;;;;;;;10.06;100.00;93659.81;5038095;22;20230;-63
2022/09/18 02:14:45;;;;;;;0.10;0.10;;;;;;;10.03;100.00;93669.50;5030604;28;20218;-63
2022/09/18 02:17:23;;;;;;;0.10;0.10;;;;;;;10.02;100.00;93686.47;5030365;28;20265;-66
2022/09/18 02:19:53;;;;;;;0.30;0.30;;;;;;;9.94;100.00;93693.22;5030278;28;20213;-63
2022/09/18 02:22:23;;;;;;;1.40;0.40;;;;;;;9.94;100.00;93694.03;5030251;28;20186;-62
2022/09/18 02:24:52;;;;;;;0.20;0.20;;;;;;;9.94;100.00;93711.81;5039177;22;20325;-62
2022/09/18 02:27:20;;;;;;;0.13;0.13;;;;;;;10.00;100.00;93718.81;5030441;28;20182;-62
2022/09/18 02:29:46;;;;;;;0.20;0.20;;;;;;;10.00;100.00;93728.97;5030186;28;20268;-62
2022/09/18 02:32:13;;;;;;;0.30;0.30;;;;;;;10.02;100.00;93734.69;5030248;28;20707;-64
2022/09/18 02:34:39;;;;;;;0.30;0.30;;;;;;;10.11;100.00;93718.63;5030711;28;20202;-62
2022/09/18 02:37:07;;;;;;;0.47;0.30;;;;;;;10.12;100.00;93743.03;5030523;28;20181;-64
2022/09/18 02:39:37;;;;;;;1.53;0.33;;;;;;;10.04;100.00;93748.03;5030566;28;20213;-63
2022/09/18 02:44:41;;;;;;;0.30;0.30;;;;;;;9.86;100.00;93759.97;5045345;22;20326;-63
2022/09/18 02:47:44;;;;;;;0.20;0.20;;;;;;;9.80;100.00;93780.88;5030091;28;20186;-64
2022/09/18 02:50:35;;;;;;;0.33;0.33;;;;;;;9.77;100.00;93758.34;4992825;28;20230;-64
2022/09/18 02:53:18;;;;;;;0.40;0.40;;;;;;;9.72;100.00;93774.91;5030034;28;20293;-63
2022/09/18 02:55:56;;;;;;;0.50;0.50;;;;;;;9.65;100.00;93784.88;5030084;28;20190;-62
2022/09/18 02:58:49;;;;;;;1.00;0.60;;;;;;;9.63;100.00;93779.16;5030299;28;20218;-62
2022/09/18 03:01:18;;;;;;;1.23;1.13;;;;;;;9.59;100.00;93770.25;5021785;28;20204;-65
2022/09/18 03:03:46;;;;;;;0.97;0.97;;;;;;;9.55;100.00;93794.31;5032871;28;20205;-62
2022/09/18 03:06:12;;;;;;;0.80;0.80;;;;;;;9.58;100.00;93793.19;5033574;28;20190;-62
2022/09/18 03:08:38;;;;;;;1.53;0.80;;;;;;;9.57;100.00;93799.22;5033577;28;20209;-66
2022/09/18 03:11:04;;;;;;;2.00;1.00;;;;;;;9.55;100.00;93806.19;5033570;28;20205;-62
2022/09/18 03:13:30;;;;;;;0.60;0.60;;;;;;;9.54;100.00;93810.47;5033597;28;20212;-65
2022/09/18 03:15:56;;;;;;;0.57;0.57;;;;;;;9.51;100.00;93813.28;5033603;28;20189;-63
2022/09/18 03:18:23;;;;;;;1.70;1.60;;;;;;;9.46;100.00;93807.84;5033637;28;20210;-63
2022/09/18 03:20:48;;;;;;;2.83;1.47;;;;;;;9.44;100.00;93835.09;5033672;28;20266;-63
2022/09/18 03:23:17;;;;;;;1.90;1.00;;;;;;;9.33;100.00;93845.44;5033617;28;20754;-67
2022/09/18 03:25:43;;;;;;;1.23;1.13;;;;;;;9.35;100.00;93815.69;4999794;28;20192;-66
2022/09/18 03:28:09;;;;;;;1.00;1.00;;;;;;;9.42;100.00;93843.78;5032954;28;20693;-66
2022/09/18 03:30:35;;;;;;;1.00;1.00;;;;;;;9.37;100.00;93863.72;5033116;28;20194;-63
2022/09/18 03:33:01;;;;;;;2.47;0.93;;;;;;;9.30;100.00;93848.25;5033173;28;20197;-63
2022/09/18 03:35:26;;;;;;;1.10;1.10;;;;;;;9.32;100.00;93856.53;5015490;28;20384;-62
2022/09/18 03:37:53;;;;;;;0.93;0.93;;;;;;;9.36;100.00;93860.38;5015199;28;20233;-63
2022/09/18 03:40:19;;;;;;;1.33;1.23;;;;;;;9.37;100.00;93867.06;5033041;28;20212;-66
2022/09/18 03:42:45;;;;;;;1.07;1.07;;;;;;;9.44;100.00;93865.53;5033180;28;20197;-64
2022/09/18 03:45:12;;;;;;;2.13;1.93;;;;;;;9.54;100.00;93835.81;5015092;28;20205;-64
2022/09/18 03:47:38;;;;;;;1.53;1.43;;;;;;;9.51;100.00;93861.50;5032896;28;20620;-64
2022/09/18 03:50:05;;;;;;;2.00;1.67;;;;;;;9.50;100.00;93834.50;5015130;28;20293;-66
2022/09/18 03:52:32;;;;;;;1.80;1.30;;;;;;;9.49;100.00;93844.81;5032809;28;20204;-64
2022/09/18 03:54:58;;;;;;;1.30;1.10;;;;;;;9.38;100.00;93866.09;5032862;28;20268;-62
2022/09/18 03:57:24;;;;;;;0.90;0.90;;;;;;;9.37;100.00;93868.78;5032841;28;20222;-64
2022/09/18 03:59:50;;;;;;;1.17;1.07;;;;;;;9.35;100.00;93848.66;5039984;22;20249;-65
2022/09/18 04:02:16;;;;;;;1.40;1.30;;;;;;;9.31;100.00;93878.53;5032808;28;20229;-64
2022/09/18 04:04:42;;;;;;;1.33;1.00;;;;;;;9.29;100.00;93912.59;5032595;28;20202;-64
2022/09/18 04:07:08;;;;;;;2.07;1.87;;;;;;;9.28;100.00;93905.94;5032477;28;20715;-62
2022/09/18 04:09:34;;;;;;;1.03;1.03;;;;;;;9.32;100.00;93897.91;5032430;28;20263;-67
2022/09/18 04:12:00;;;;;;;2.50;1.60;;;;;;;9.31;100.00;93908.19;5048717;22;20233;-64
2022/09/18 04:14:25;;;;;;;2.37;2.17;;;;;;;9.26;100.00;93897.66;5039275;22;20762;-64
2022/09/18 04:16:51;;;;;;;1.77;1.27;;;;;;;9.31;100.00;93908.97;5014693;28;20189;-63
2022/09/18 04:19:17;;;;;;;2.30;1.60;;;;;;;9.33;100.00;93919.78;5039505;22;20290;-63
2022/09/18 04:21:42;;;;;;;1.67;1.53;;;;;;;9.40;100.00;93945.38;5032410;28;20269;-63
2022/09/18 04:24:08;;;;;;;1.43;1.33;;;;;;;9.34;100.00;93948.47;5032499;28;20348;-64
2022/09/18 04:26:34;;;;;;;1.60;1.50;;;;;;;9.38;100.00;93936.31;5032457;28;20194;-67
2022/09/18 04:29:00;;;;;;;1.60;1.47;;;;;;;9.32;100.00;93966.38;5032051;28;20734;-62
2022/09/18 04:31:25;;;;;;;1.63;1.53;;;;;;;9.35;100.00;93962.78;5032358;28;20277;-66
2022/09/18 04:33:51;;;;;;;2.97;1.77;;;;;;;9.49;100.00;93952.16;5045404;22;20672;-64
2022/09/18 04:36:16;;;;;;;1.87;1.70;;;;;;;9.42;100.00;93960.44;5032299;28;20786;-64
2022/09/18 04:38:42;;;;;;;1.43;1.33;;;;;;;9.34;100.00;93948.47;5032344;28;20288;-63
2022/09/18 04:41:08;;;;;;;2.13;1.93;;;;;;;9.49;100.00;93938.66;5032461;28;20241;-64
2022/09/18 04:43:34;;;;;;;1.63;1.53;;;;;;;9.42;100.00;93943.50;5021725;22;20661;-65
2022/09/18 04:46:00;;;;;;;1.60;1.50;;;;;;;9.35;100.00;93927.25;5061583;22;20226;-67
2022/09/18 04:48:25;;;;;;;1.77;1.47;;;;;;;9.36;100.00;93917.91;5057200;22;20234;-68
2022/09/18 04:50:51;;;;;;;1.90;1.67;;;;;;;9.52;100.00;93964.56;5047981;22;20228;-64
2022/09/18 04:53:17;;;;;;;1.60;1.50;;;;;;;9.49;100.00;93967.38;5032167;28;20645;-64
2022/09/18 04:55:44;;;;;;;1.77;1.67;;;;;;;9.57;100.00;93948.91;5032118;28;20239;-67
2022/09/18 05:00:37;;;;;;;1.63;1.53;;;;;;;9.54;100.00;93982.97;5075578;22;20259;-65
2022/09/18 05:03:06;;;;;;;2.13;1.73;;;;;;;9.70;100.00;94006.00;5132179;22;20656;-66
2022/09/18 05:05:31;;;;;;;1.63;1.53;;;;;;;9.56;100.00;94003.94;5078771;22;20228;-68
2022/09/18 05:07:59;;;;;;;1.60;1.50;;;;;;;9.68;100.00;93986.78;5121903;22;20225;-65
2022/09/18 05:10:25;;;;;;;1.20;1.10;;;;;;;9.72;100.00;94033.78;5091802;22;20232;-67
2022/09/18 05:12:51;;;;;;;1.60;1.30;;;;;;;9.82;100.00;94017.56;5051510;28;20669;-65
2022/09/18 05:15:17;;;;;;;1.70;1.60;;;;;;;9.71;100.00;94067.72;5038486;28;20229;-68
2022/09/18 05:17:44;;;;;;;1.20;1.20;;;;;;;9.68;100.00;94078.94;5112889;22;20222;-67
2022/09/18 05:20:10;;;;;;;2.80;1.67;;;;;;;9.61;100.00;94084.72;5097489;22;20712;-68
2022/09/18 05:22:36;;;;;;;1.73;1.60;;;;;;;9.64;100.00;94085.22;5049659;28;20293;-62
2022/09/18 05:25:04;;;;;;;2.30;2.07;;;;;;;9.69;100.00;94072.13;5051404;28;20213;-66
2022/09/18 05:27:29;;;;;;;1.70;1.60;;;;;;;9.73;100.00;94086.94;5042699;28;20242;-65
2022/09/18 05:29:56;;;;;;;1.90;1.80;;;;;;;9.76;100.00;94127.25;5031165;28;20210;-69
2022/09/18 05:32:21;;;;;;;1.43;1.33;;;;;;;9.77;100.00;94123.81;5037212;28;20204;-67
2022/09/18 05:34:48;;;;;;;1.77;1.60;;;;;;;9.72;100.00;94107.38;5014556;28;20214;-65
2022/09/18 05:37:18;;;;;;;2.00;1.80;;;;;;;9.72;100.00;94100.56;5031246;28;20676;-65
2022/09/18 05:39:43;;;;;;;2.20;1.80;;;;;;;9.68;100.00;94119.53;5047524;22;20248;-63
2022/09/18 05:42:09;;;;;;;1.83;1.57;;;;;;;9.70;100.00;94107.50;5050929;28;20755;-67
2022/09/18 05:44:35;;;;;;;4.03;2.00;;;;;;;9.76;100.00;94104.41;5093259;22;20213;-68
2022/09/18 05:47:01;;;;;;;3.17;2.10;;;;;;;9.79;100.00;94126.19;5076305;22;20237;-65
2022/09/18 05:49:26;;;;;;;1.70;1.37;;;;;;;9.67;100.00;94163.63;5059933;28;20221;-64
2022/09/18 05:51:53;;;;;;;2.20;1.40;;;;;;;9.74;100.00;94141.81;5051060;28;20277;-66
2022/09/18 05:54:19;;;;;;;1.63;1.50;;;;;;;9.79;100.00;94141.44;5050554;28;20209;-67
2022/09/18 05:56:45;;;;;;;1.70;1.60;;;;;;;9.93;100.00;94141.78;5050384;28;20276;-66
2022/09/18 05:59:12;;;;;;;2.10;1.30;;;;;;;10.09;100.00;94161.50;5075417;22;20214;-68
2022/09/18 06:01:38;;;;;;;3.10;1.20;;;;;;;10.07;100.00;94159.13;5030599;28;20190;-65
2022/09/18 06:04:05;;;;;;;1.60;1.37;;;;;;;9.96;100.00;94146.56;5107831;22;20225;-64
2022/09/18 06:06:30;;;;;;;1.30;1.13;;;;;;;10.04;100.00;94140.78;5045475;22;20229;-65
2022/09/18 06:08:56;;;;;;;1.73;1.50;;;;;;;10.19;100.00;94151.34;5054241;22;20229;-66
2022/09/18 06:11:22;;;;;;;1.47;1.37;;;;;;;10.08;100.00;94154.81;5049310;28;20323;-66
2022/09/18 06:13:50;;;;;;;1.40;1.30;;;;;;;10.23;100.00;94150.13;5052058;22;20199;-66
2022/09/18 06:16:17;;;;;;;1.23;1.13;;;;;;;10.16;100.00;94154.16;5056219;22;20312;-68
2022/09/18 06:18:43;;;;;;;1.40;1.30;;;;;;;10.10;100.00;94171.56;5057849;22;20213;-65
2022/09/18 06:21:13;;;;;;;1.80;1.70;;;;;;;10.17;100.00;94181.16;5086327;22;20225;-64
2022/09/18 06:23:40;;;;;;;1.80;1.70;;;;;;;10.18;100.00;94182.78;5049289;28;20313;-64
2022/09/18 06:26:06;;;;;;;3.20;1.43;;;;;;;10.10;100.00;94178.34;5049385;28;20251;-65
2022/09/18 06:28:33;;;;;;;1.73;1.17;;;;;;;10.03;100.00;94193.34;5040983;22;20233;-64
2022/09/18 06:31:01;;;;;;;2.13;1.40;;;;;;;9.96;100.00;94199.91;5030518;28;20351;-64
2022/09/18 06:35:55;;;;;;;3.10;1.33;;;;;;;10.08;100.00;94215.75;5050416;22;20252;-63
2022/09/18 06:38:20;;;;;;;1.40;1.30;;;;;;;9.97;100.00;94198.97;5048473;28;20186;-64
2022/09/18 06:40:51;;;;;;;1.10;1.00;;;;;;;9.92;100.00;94226.50;5049112;28;20200;-64
2022/09/18 06:43:18;;;;;;;2.43;1.30;;;;;;;9.96;100.00;94214.31;5048713;28;20613;-66
2022/09/18 06:45:49;;;;;;;2.93;1.17;;;;;;;10.82;100.00;94155.56;5072218;22;20224;-63
2022/09/18 06:48:15;;;;;;;1.20;1.10;;;;;;;10.56;100.00;94208.03;5048762;28;20209;-66
2022/09/18 06:50:40;;;;;;;1.37;1.03;;;;;;;10.44;100.00;94242.19;5091280;22;20238;-63
2022/09/18 06:53:06;;;;;;;2.30;1.60;;;;;;;10.43;100.00;94228.66;5030999;28;20606;-64
2022/09/18 06:55:32;;;;;;;7.83;1.20;;;;;;;10.38;100.00;94217.31;5072124;22;20772;-65
2022/09/18 06:57:59;;;;;;;4.07;1.00;;;;;;;10.52;100.00;94215.13;5048456;28;20785;-66
2022/09/18 07:00:26;;;;;;;2.43;1.20;;;;;;;10.45;100.00;94254.72;5048626;28;20216;-64
2022/09/18 07:02:59;;;;;;;3.40;1.40;;;;;;;10.34;100.00;94243.94;5048738;28;20197;-65
2022/09/18 07:05:30;;;;;;;1.53;1.23;;;;;;;10.43;100.00;94231.19;5049048;28;20221;-65
2022/09/18 07:07:57;;;;;;;3.27;1.93;;;;;;;10.32;100.00;94233.13;5048552;28;20407;-64
2022/09/18 07:10:23;;;;;;;3.20;1.77;;;;;;;10.46;100.00;94237.75;5048925;28;20228;-62
2022/09/18 07:12:54;;;;;;;2.67;1.40;;;;;;;10.50;100.00;94277.19;5030432;28;20725;-63
2022/09/18 07:15:20;;;;;;;1.13;1.03;;;;;;;10.49;100.00;94273.84;5030609;28;20221;-67
2022/09/18 07:17:46;;;;;;;2.23;1.60;;;;;;;10.60;100.00;94268.59;5048569;28;20259;-65
2022/09/18 07:20:13;;;;;;;1.97;1.77;;;;;;;10.66;100.00;94270.59;5055797;22;20720;-66
2022/09/18 07:22:41;;;;;;;2.13;1.47;;;;;;;10.82;100.00;94270.78;5030236;28;20290;-63
2022/09/18 07:25:08;;;;;;;2.37;1.23;;;;;;;10.74;100.00;94313.09;5047215;28;20278;-65
2022/09/18 07:27:34;;;;;;;3.83;2.27;;;;;;;10.71;100.00;94328.63;5046507;28;20212;-62
2022/09/18 07:30:01;;;;;;;2.07;1.20;;;;;;;10.76;100.00;94339.19;5030251;28;20218;-67
2022/09/18 07:32:27;;;;;;;4.50;2.00;;;;;;;10.87;100.00;94357.59;5048120;28;20207;-65
2022/09/18 07:34:52;;;;;;;3.90;1.70;;;;;;;11.04;100.00;94370.53;5048005;28;20213;-65
2022/09/18 07:37:18;;;;;;;3.80;1.97;;;;;;;11.06;100.00;94331.31;5030284;28;20190;-64
2022/09/18 07:39:44;;;;;;;2.90;1.40;;;;;;;11.04;100.00;94370.53;5048069;28;20671;-66
2022/09/18 07:42:11;;;;;;;1.07;0.83;;;;;;;10.98;100.00;94331.22;5048131;28;20503;-65
2022/09/18 07:44:37;;;;;;;1.63;1.10;;;;;;;11.03;100.00;94323.94;5030048;28;20225;-62
2022/09/18 07:47:04;;;;;;;1.87;1.47;;;;;;;11.19;100.00;94308.88;5047875;28;20189;-63
2022/09/18 07:49:31;;;;;;;1.00;0.90;;;;;;;11.13;100.00;94329.00;5030470;28;20229;-62
2022/09/18 07:51:57;;;;;;;1.10;1.07;;;;;;;11.18;100.00;94298.84;5050148;28;20247;-63
2022/09/18 07:54:24;;;;;;;3.30;1.90;;;;;;;11.26;100.00;94327.72;5051671;28;20213;-64
2022/09/18 07:56:49;;;;;;;0.80;0.80;;;;;;;11.26;100.00;94340.44;5051526;28;20189;-61
2022/09/18 07:59:15;;;;;;;2.07;1.53;;;;;;;11.43;100.00;94362.56;5051264;28;20224;-65
2022/09/18 08:01:40;;;;;;;1.70;1.13;;;;;;;11.44;100.00;94355.75;5051469;28;20178;-63
2022/09/18 08:04:06;;;;;;;1.07;0.90;;;;;;;11.64;100.00;94380.16;5051207;28;20507;-65
2022/09/18 08:06:32;;;;;;;1.40;1.13;;;;;;;11.68;100.00;94379.75;5051233;28;20196;-61
2022/09/18 08:08:58;;;;;;;1.10;1.00;;;;;;;11.59;100.00;94390.78;5032529;28;20279;-63
2022/09/18 08:11:24;;;;;;;5.43;1.33;;;;;;;11.60;100.00;94368.66;5033060;28;20197;-61
2022/09/18 08:13:50;;;;;;;1.70;1.07;;;;;;;11.55;100.00;94363.22;5050241;28;20691;-63
2022/09/18 08:16:16;;;;;;;2.27;1.30;;;;;;;11.72;100.00;94365.81;5048935;28;20193;-63
2022/09/18 08:18:42;;;;;;;1.63;1.10;;;;;;;11.84;100.00;94376.56;5048466;28;20533;-63
2022/09/18 08:21:07;;;;;;;0.90;0.80;;;;;;;11.86;100.00;94395.06;5050423;28;20759;-61
2022/09/18 08:23:34;;;;;;;1.03;0.70;;;;;;;11.86;100.00;94371.38;5050743;28;20201;-63
2022/09/18 08:26:03;;;;;;;1.30;1.17;;;;;;;12.00;100.00;94409.06;5050831;28;20209;-62
2022/09/18 08:28:29;;;;;;;1.27;1.17;;;;;;;11.93;99.07;94423.31;5050385;28;20225;-63
2022/09/18 08:30:58;;;;;;;1.27;1.10;;;;;;;11.87;99.34;94408.59;5050846;28;20277;-62
2022/09/18 08:33:25;;;;;;;0.83;0.83;;;;;;;11.86;100.00;94389.19;5032675;28;20198;-63
2022/09/18 08:35:57;;;;;;;2.30;1.93;;;;;;;12.06;99.71;94398.31;5050895;28;20174;-61
2022/09/18 08:38:23;;;;;;;2.97;0.93;;;;;;;12.10;98.01;94440.38;5049031;28;20205;-62
2022/09/18 08:41:33;;;;;;;2.93;0.90;;;;;;;11.95;98.30;94421.44;5049325;28;20239;-62
2022/09/18 08:44:13;;;;;;;1.63;1.30;;;;;;;12.22;97.85;94423.94;5050338;28;20222;-62
2022/09/18 08:46:55;;;;;;;2.80;1.50;;;;;;;12.61;98.61;94409.91;5032565;28;20201;-63
2022/09/18 08:49:35;;;;;;;1.37;1.27;;;;;;;12.73;98.05;94434.22;5050256;28;20225;-62
2022/09/18 08:52:13;;;;;;;3.57;0.80;;;;;;;12.58;96.16;94467.09;5050483;28;20205;-62
2022/09/18 08:54:58;;;;;;;1.23;1.00;;;;;;;12.73;96.22;94458.94;5032562;28;21020;-61
2022/09/18 08:57:24;;;;;;;1.83;1.43;;;;;;;12.61;97.98;94431.13;5050163;28;20193;-62
2022/09/18 09:00:06;;;;;;;1.73;1.53;;;;;;;12.72;98.53;94416.53;5032099;28;20663;-63
2022/09/18 09:02:54;;;;;;;2.00;1.43;;;;;;;13.16;97.63;94456.41;5050384;28;20196;-60
2022/09/18 09:05:27;;;;;;;1.10;1.00;;;;;;;13.07;96.56;94464.97;5050491;28;20788;-62
2022/09/18 09:08:11;;;;;;;1.20;1.10;;;;;;;13.21;96.95;94454.22;5050205;28;20340;-62
2022/09/18 09:10:41;;;;;;;2.00;0.90;;;;;;;12.79;97.40;94438.75;5031969;28;20241;-61
2022/09/18 09:13:52;;;;;;;2.77;1.20;;;;;;;12.61;99.00;94415.81;5047578;28;20205;-63
2022/09/18 09:16:30;;;;;;;1.10;1.00;;;;;;;12.52;97.29;94446.50;5025224;28;20197;-63
2022/09/18 09:19:10;;;;;;;1.63;0.83;;;;;;;12.73;95.06;94490.34;5031715;28;20247;-62
2022/09/18 09:24:30;;;;;;;2.90;1.10;;;;;;;13.14;93.03;94522.94;5067774;22;20244;-62
2022/09/18 09:26:57;;;;;;;1.53;1.23;;;;;;;13.40;92.39;94536.50;5049665;28;20185;-61
2022/09/18 09:29:34;;;;;;;3.47;1.80;;;;;;;13.39;92.60;94522.13;5049551;28;20210;-61
2022/09/18 09:32:27;;;;;;;3.50;1.50;;;;;;;13.46;92.46;94523.16;5049779;28;20177;-61
2022/09/18 09:35:15;;;;;;;0.97;0.83;;;;;;;13.44;90.99;94558.25;5049905;28;20216;-60
2022/09/18 09:37:44;;;;;;;1.77;0.80;;;;;;;13.61;91.50;94528.50;5079946;22;20334;-62
2022/09/18 09:40:39;;;;;;;0.97;0.90;;;;;;;13.76;91.67;94551.72;5047406;28;20215;-62
2022/09/18 09:43:21;;;;;;;3.23;1.00;;;;;;;13.61;83.22;94550.69;5036587;28;20213;-61
2022/09/18 09:45:50;;;;;;;2.60;1.40;;;;;;;13.81;80.02;94598.06;5049730;28;20246;-62
2022/09/18 09:48:28;;;;;;;2.27;1.67;;;;;;;14.03;76.67;94618.81;5049002;28;20240;-62
2022/09/18 09:51:15;;;;;;;1.70;1.17;;;;;;;14.06;75.10;94621.06;5049669;28;20196;-62
2022/09/18 09:53:41;;;;;;;2.60;2.00;;;;;;;13.88;73.91;94604.16;5049474;28;20217;-63
2022/09/18 09:56:24;;;;;;;1.40;1.30;;;;;;;13.97;71.47;94633.94;5049349;28;20188;-62
2022/09/18 09:59:13;;;;;;;1.57;1.33;;;;;;;14.34;71.29;94634.50;5049147;28;20220;-62
2022/09/18 10:01:52;;;;;;;1.77;1.67;;;;;;;14.37;69.96;94653.84;5025928;28;20213;-63
2022/09/18 10:04:45;;;;;;;2.57;1.47;;;;;;;14.29;69.90;94652.06;5049233;28;20209;-62
2022/09/18 10:07:36;;;;;;;1.57;1.47;;;;;;;14.29;69.74;94657.97;5048045;28;20255;-61
2022/09/18 10:10:14;;;;;;;1.60;1.50;;;;;;;14.09;72.12;94594.38;5047605;28;20284;-64
2022/09/18 10:12:39;;;;;;;1.73;1.63;;;;;;;13.61;73.09;94551.50;5030413;28;20197;-62
2022/09/18 10:15:24;;;;;;;3.57;1.83;;;;;;;13.27;74.81;94504.69;5048957;28;20205;-61
2022/09/18 10:17:55;;;;;;;2.47;2.10;;;;;;;13.05;76.44;94477.09;5048969;28;20228;-61
2022/09/18 10:20:27;;;;;;;2.07;1.97;;;;;;;13.33;76.77;94481.88;5049147;28;20197;-63
2022/09/18 10:22:55;;;;;;;2.57;2.37;;;;;;;13.72;74.35;94540.19;5048838;28;20197;-62
2022/09/18 10:25:38;;;;;;;4.17;2.53;;;;;;;13.51;75.87;94512.50;5031083;28;20202;-63
2022/09/18 10:28:03;;;;;;;3.10;2.80;;;;;;;13.26;76.44;94491.09;5048525;28;20229;-63
2022/09/18 10:30:28;;;;;;;3.87;3.37;;;;;;;13.42;76.38;94485.28;5048906;28;20285;-62
2022/09/18 10:32:54;;;;;;;4.13;2.77;;;;;;;13.72;75.36;94537.63;5048859;28;20213;-61
2022/09/18 10:35:29;;;;;;;6.53;3.57;;;;;;;14.24;73.65;94590.31;5065221;22;20256;-60
2022/09/18 10:37:55;;;;;;;5.63;3.77;;;;;;;14.51;73.64;94576.53;5048745;28;20189;-63
2022/09/18 10:40:38;;;;;;;3.33;2.83;;;;;;;13.90;72.68;94586.94;5047374;28;20296;-63
2022/09/18 10:43:06;;;;;;;2.80;2.60;;;;;;;13.75;75.02;94560.34;5046304;28;20280;-60
2022/09/18 10:45:40;;;;;;;4.93;3.10;;;;;;;13.94;81.06;94355.66;5047385;28;20368;-61
2022/09/18 10:48:20;;;;;;;4.57;2.90;;;;;;;14.32;72.09;94606.50;5048304;28;20223;-62
2022/09/18 10:50:59;;;;;;;3.43;3.13;;;;;;;14.59;70.18;94666.09;5048805;28;20200;-61
2022/09/18 10:53:34;;;;;;;4.37;3.00;;;;;;;14.61;70.46;94626.63;5030786;28;20212;-62
2022/09/18 10:56:20;;;;;;;3.30;3.00;;;;;;;14.74;68.07;94696.09;5048671;28;20734;-61
2022/09/18 10:58:45;;;;;;;2.97;2.70;;;;;;;14.26;69.66;94642.13;5048552;28;20217;-60
2022/09/18 11:01:13;;;;;;;4.03;3.63;;;;;;;14.45;69.63;94644.47;5048424;28;20197;-61
2022/09/18 11:03:42;;;;;;;3.58;3.28;;;;;;;14.25;69.98;94630.25;5048394;28;20260;-60
2022/09/18 11:06:16;;;;;;;3.83;3.53;;;;;;;13.98;71.21;94604.88;5048513;28;20190;-60
2022/09/18 11:08:45;;;;;;;4.03;3.70;;;;;;;14.15;71.14;94624.47;5028403;28;20239;-60
2022/09/18 11:11:34;;;;;;;3.67;3.17;;;;;;;14.04;70.62;94645.16;5028476;28;20192;-61
2022/09/18 11:14:06;;;;;;;4.97;3.43;;;;;;;13.53;73.23;94555.75;5048247;28;20221;-61
2022/09/18 11:16:38;;;;;;;5.40;3.97;;;;;;;13.72;72.55;94575.97;5030698;28;20205;-61
2022/09/18 11:19:06;;;;;;;3.53;3.23;;;;;;;13.92;71.42;94616.50;5048307;28;20217;-61
2022/09/18 11:21:32;;;;;;;4.27;3.70;;;;;;;14.15;70.95;94609.13;5048719;28;20314;-62
2022/09/18 11:24:08;;;;;;;3.10;2.80;;;;;;;14.82;69.53;94670.53;5048394;28;20228;-62
2022/09/18 11:26:34;;;;;;;3.63;2.97;;;;;;;14.87;66.51;94724.59;5052140;28;20178;-62
2022/09/18 11:29:02;;;;;;;4.90;2.70;;;;;;;14.65;65.88;94730.25;5033266;28;20316;-62
2022/09/18 11:31:46;;;;;;;3.13;2.57;;;;;;;14.55;65.96;94726.19;5034004;28;20196;-63
2022/09/18 11:34:29;;;;;;;2.50;2.17;;;;;;;14.63;65.74;94716.81;5051993;28;20221;-61
2022/09/18 11:37:00;;;;;;;3.13;2.00;;;;;;;14.89;64.68;94745.72;5052115;28;20246;-60
2022/09/18 11:39:32;;;;;;;3.57;2.23;;;;;;;14.99;65.57;94704.63;5051631;28;20220;-61
2022/09/18 11:41:58;;;;;;;4.05;2.08;;;;;;;15.04;63.70;94767.25;5051663;28;20197;-62
2022/09/18 11:44:30;;;;;;;3.83;1.90;;;;;;;15.37;68.17;94631.56;5051849;28;20287;-61
2022/09/18 11:47:12;;;;;;;2.67;1.50;;;;;;;15.19;65.74;94697.50;5051767;28;20273;-61
2022/09/18 11:49:46;;;;;;;2.60;1.73;;;;;;;15.39;62.84;94766.22;5033170;28;20221;-61
2022/09/18 11:52:25;;;;;;;4.20;1.90;;;;;;;15.39;63.60;94766.22;5051498;28;20181;-61
2022/09/18 11:54:50;;;;;;;2.10;1.90;;;;;;;15.50;67.11;94645.53;5051849;28;20219;-60